Time;durP1;ratioP1;P1;durP2;ratioP2;P2;SDS_P1;SDS_P2;PMS_P1;PMS_P2;Temp;Humidity;BMP_temperature;BMP_pressure;BME280_temperature;BME280_humidity;BME280_pressure;Samples;Min_cycle;Max_cycle;Signal;HPM_P1;HPM_P2
2022/12/24 00:00:00;;;;;;;19.17;4.40;;;;;;;11.99;77.99;98536.41;5010811;28;20113;-78
2022/12/24 00:02:26;;;;;;;16.63;4.63;;;;;;;12.00;77.82;98539.88;5010674;28;20618;-78
2022/12/24 00:04:53;;;;;;;16.73;4.57;;;;;;;11.99;77.82;98532.94;5010398;28;20058;-78
2022/12/24 00:07:26;;;;;;;19.60;4.85;;;;;;;11.99;77.77;98551.38;5010503;28;20049;-79
2022/12/24 00:09:52;;;;;;;13.23;3.60;;;;;;;11.98;77.64;98552.34;5010378;28;20124;-79
2022/12/24 00:12:19;;;;;;;13.93;3.90;;;;;;;11.97;77.69;98550.69;5010328;28;20583;-78
2022/12/24 00:14:45;;;;;;;13.43;3.97;;;;;;;11.96;78.00;98554.31;5010178;28;20424;-79
2022/12/24 00:17:12;;;;;;;16.00;3.67;;;;;;;11.95;77.67;98568.44;5010227;28;20058;-79
2022/12/24 00:19:38;;;;;;;15.30;4.20;;;;;;;11.94;77.81;98569.41;5010426;28;20101;-79
2022/12/24 00:22:04;;;;;;;18.67;3.97;;;;;;;11.91;77.74;98567.00;5010332;28;20058;-79
2022/12/24 00:24:31;;;;;;;16.83;4.28;;;;;;;11.91;77.71;98572.28;5010098;28;20069;-79
2022/12/24 00:26:57;;;;;;;10.48;3.78;;;;;;;11.90;77.79;98583.78;5010154;28;20124;-79
2022/12/24 00:29:24;;;;;;;11.57;4.00;;;;;;;11.90;77.88;98578.53;5010043;28;20062;-79
2022/12/24 00:31:50;;;;;;;15.60;3.78;;;;;;;11.90;77.74;98581.16;5010271;28;20476;-79
2022/12/24 00:34:16;;;;;;;14.13;3.85;;;;;;;11.89;77.76;98582.13;5010192;28;20061;-79
2022/12/24 00:36:43;;;;;;;19.58;4.35;;;;;;;11.88;77.65;98585.72;5009760;28;20109;-79
2022/12/24 00:39:09;;;;;;;13.85;3.95;;;;;;;11.86;77.72;98589.31;5010104;28;20061;-79
2022/12/24 00:41:35;;;;;;;11.52;3.50;;;;;;;11.86;77.87;98596.41;5009763;28;20058;-79
2022/12/24 00:44:05;;;;;;;9.35;3.25;;;;;;;11.85;77.85;98603.47;5010055;28;20054;-78
2022/12/24 00:46:33;;;;;;;13.18;3.28;;;;;;;11.82;77.79;98616.88;5009205;28;20050;-79
2022/12/24 00:49:00;;;;;;;24.88;4.93;;;;;;;11.81;77.80;98607.31;5009723;28;20427;-79
2022/12/24 00:51:28;;;;;;;15.32;3.75;;;;;;;11.80;77.84;98616.19;5009831;28;20054;-79
2022/12/24 00:53:55;;;;;;;19.02;4.30;;;;;;;11.79;77.67;98617.16;4992350;28;20061;-79
2022/12/24 00:56:21;;;;;;;15.13;3.88;;;;;;;11.78;77.97;98623.38;5009712;28;20496;-79
2022/12/24 00:58:48;;;;;;;19.10;3.85;;;;;;;11.78;77.94;98625.19;5009748;28;20073;-78
2022/12/24 01:01:15;;;;;;;12.75;3.65;;;;;;;11.79;77.83;98632.13;4992556;28;20105;-79
2022/12/24 01:03:41;;;;;;;16.40;3.78;;;;;;;11.76;77.63;98622.66;5009661;28;20089;-79
2022/12/24 01:06:11;;;;;;;17.25;4.22;;;;;;;11.76;77.65;98625.31;5009564;28;20061;-79
2022/12/24 01:08:37;;;;;;;20.98;4.30;;;;;;;11.77;77.70;98626.97;5009529;28;20497;-79
2022/12/24 01:11:05;;;;;;;17.92;3.88;;;;;;;11.77;77.74;98631.44;5009814;28;20058;-79
2022/12/24 01:13:31;;;;;;;16.70;3.78;;;;;;;11.76;77.46;98630.56;5009681;28;20062;-79
2022/12/24 01:15:57;;;;;;;24.85;4.70;;;;;;;11.76;77.56;98648.19;5009565;28;20112;-80
2022/12/24 01:18:25;;;;;;;24.83;4.93;;;;;;;11.75;77.71;98650.00;5009447;28;20108;-79
2022/12/24 01:21:00;;;;;;;16.40;4.60;;;;;;;11.72;76.57;98647.59;5009511;28;20497;-79
2022/12/24 01:23:27;;;;;;;18.85;4.22;;;;;;;11.73;77.37;98655.38;5009601;28;20076;-79
2022/12/24 01:25:54;;;;;;;16.08;3.53;;;;;;;11.74;77.08;98666.78;5009634;28;20054;-78
2022/12/24 01:28:20;;;;;;;18.65;4.45;;;;;;;11.73;77.42;98660.66;5009462;28;20054;-79
2022/12/24 01:30:47;;;;;;;18.15;4.10;;;;;;;11.74;77.17;98666.78;4991994;28;20057;-79
2022/12/24 01:33:14;;;;;;;23.23;4.68;;;;;;;11.72;76.96;98674.81;5009255;28;20413;-78
2022/12/24 01:35:41;;;;;;;13.27;4.00;;;;;;;11.72;76.92;98679.22;4992067;28;20058;-79
2022/12/24 01:38:10;;;;;;;19.10;3.97;;;;;;;11.71;76.93;98678.38;5009456;28;20526;-79
2022/12/24 01:43:30;;;;;;;25.55;4.47;;;;;;;11.66;76.58;98693.72;5009311;28;20058;-79
2022/12/24 01:48:36;;;;;;;20.00;4.53;;;;;;;11.68;77.09;98709.44;5016775;28;20204;-79
2022/12/24 01:51:25;;;;;;;21.70;5.03;;;;;;;11.63;76.27;98708.97;5004286;28;20060;-80
2022/12/24 01:53:57;;;;;;;26.55;5.25;;;;;;;11.66;76.69;98711.34;5012363;28;20057;-80
2022/12/24 01:56:25;;;;;;;27.73;5.18;;;;;;;11.65;77.01;98707.88;5029740;28;20570;-81
2022/12/24 01:58:56;;;;;;;19.80;5.20;;;;;;;11.64;76.49;98718.53;5012614;28;20060;-80
2022/12/24 02:01:23;;;;;;;24.05;4.72;;;;;;;11.65;76.78;98725.47;5034372;28;20064;-80
2022/12/24 02:03:50;;;;;;;21.45;4.05;;;;;;;11.64;76.77;98723.81;5033768;28;20060;-79
2022/12/24 02:06:19;;;;;;;19.20;3.85;;;;;;;11.63;76.84;98727.41;5033702;28;20144;-81
2022/12/24 02:08:46;;;;;;;25.27;5.05;;;;;;;11.64;76.68;98729.94;5033543;28;20057;-80
2022/12/24 02:11:16;;;;;;;30.13;5.25;;;;;;;11.61;76.65;98735.44;5033409;28;20104;-80
2022/12/24 02:13:47;;;;;;;24.77;5.00;;;;;;;11.60;76.65;98724.03;5015674;28;20065;-80
2022/12/24 02:16:44;;;;;;;29.80;5.53;;;;;;;11.55;75.78;98734.09;5033661;28;20076;-80
2022/12/24 02:19:29;;;;;;;28.92;5.15;;;;;;;11.57;76.55;98755.94;5033778;28;20061;-80
2022/12/24 02:22:11;;;;;;;25.17;4.75;;;;;;;11.53;76.00;98754.47;5033449;28;20049;-80
2022/12/24 02:24:47;;;;;;;21.88;5.07;;;;;;;11.50;75.72;98759.97;5033538;28;20096;-80
2022/12/24 02:27:13;;;;;;;22.40;4.57;;;;;;;11.52;76.52;98755.44;5033189;28;20136;-80
2022/12/24 02:30:04;;;;;;;22.48;4.57;;;;;;;11.47;76.43;98757.56;5033215;28;20049;-80
2022/12/24 02:32:39;;;;;;;23.27;4.40;;;;;;;11.49;76.62;98765.38;5033142;28;20072;-79
2022/12/24 02:35:18;;;;;;;22.73;4.18;;;;;;;11.46;76.34;98774.34;5033241;28;20080;-80
2022/12/24 02:38:27;;;;;;;26.17;4.65;;;;;;;11.43;76.53;98771.94;5033132;28;20057;-79
2022/12/24 02:41:00;;;;;;;21.98;4.80;;;;;;;11.46;76.63;98774.34;4971634;28;20095;-79
2022/12/24 02:43:37;;;;;;;29.05;5.32;;;;;;;11.41;75.87;98776.50;4971869;28;20061;-81
2022/12/24 02:46:26;;;;;;;20.95;4.65;;;;;;;11.40;76.26;98785.38;5009436;28;20119;-80
2022/12/24 02:48:55;;;;;;;24.42;4.75;;;;;;;11.43;76.71;98798.28;5015187;28;20057;-80
2022/12/24 02:51:23;;;;;;;21.15;4.63;;;;;;;11.41;76.87;98793.16;5032775;28;20050;-80
2022/12/24 02:53:50;;;;;;;29.35;4.82;;;;;;;11.41;76.92;98792.31;5033012;28;20053;-80
2022/12/24 02:56:33;;;;;;;29.27;5.38;;;;;;;11.41;76.79;98798.44;5032972;28;20149;-80
2022/12/24 02:59:24;;;;;;;28.60;5.70;;;;;;;11.38;75.71;98797.81;5015472;28;20122;-80
2022/12/24 03:02:00;;;;;;;22.42;4.68;;;;;;;11.41;76.30;98806.34;5032943;28;20072;-80
2022/12/24 03:04:40;;;;;;;28.67;5.22;;;;;;;11.42;76.20;98815.06;5032717;28;20062;-79
2022/12/24 03:07:24;;;;;;;24.55;4.03;;;;;;;11.41;75.90;98802.84;5032476;28;20132;-79
2022/12/24 03:09:59;;;;;;;31.50;5.00;;;;;;;11.43;76.04;98814.09;5031975;28;20088;-79
2022/12/24 03:12:40;;;;;;;21.95;5.47;;;;;;;11.43;75.80;98819.38;5032756;28;20057;-80
2022/12/24 03:15:10;;;;;;;25.00;4.82;;;;;;;11.46;76.49;98829.69;5032500;28;20065;-80
2022/12/24 03:17:40;;;;;;;26.77;4.45;;;;;;;11.45;76.15;98835.91;5014714;28;20168;-79
2022/12/24 03:20:08;;;;;;;23.65;5.15;;;;;;;11.47;76.46;98826.09;5032296;28;20103;-80
2022/12/24 03:22:36;;;;;;;25.92;5.47;;;;;;;11.45;76.47;98835.91;5032319;28;20506;-81
2022/12/24 03:25:03;;;;;;;26.77;4.82;;;;;;;11.47;76.51;98839.25;5032235;28;20103;-80
2022/12/24 03:27:33;;;;;;;21.05;5.22;;;;;;;11.47;76.08;98839.25;5031955;28;20057;-81
2022/12/24 03:30:01;;;;;;;30.17;5.90;;;;;;;11.48;76.27;98851.50;5032301;28;20489;-79
2022/12/24 03:32:30;;;;;;;24.42;4.60;;;;;;;11.46;76.20;98856.91;5014605;28;20501;-80
2022/12/24 03:34:57;;;;;;;31.50;5.20;;;;;;;11.49;76.35;98861.09;5031861;28;20522;-80
2022/12/24 03:37:24;;;;;;;26.17;4.63;;;;;;;11.47;76.25;98862.97;5032061;28;20136;-80
2022/12/24 03:39:51;;;;;;;18.33;4.30;;;;;;;11.49;75.99;98871.63;5032078;28;20132;-80
2022/12/24 03:42:17;;;;;;;21.77;4.43;;;;;;;11.47;76.03;98865.63;5031944;28;20049;-79
2022/12/24 03:44:44;;;;;;;35.50;6.35;;;;;;;11.45;75.93;98865.72;5031882;28;20049;-80
2022/12/24 03:47:10;;;;;;;25.20;5.45;;;;;;;11.45;76.03;98872.81;5031657;28;20049;-80
2022/12/24 03:49:37;;;;;;;27.90;5.38;;;;;;;11.43;75.75;98866.81;5031678;28;20127;-79
2022/12/24 03:52:03;;;;;;;30.98;5.63;;;;;;;11.43;75.91;98870.28;5031805;28;20409;-80
2022/12/24 03:54:30;;;;;;;31.15;6.05;;;;;;;11.40;75.36;98873.16;5031829;28;20136;-80
2022/12/24 03:56:56;;;;;;;31.40;5.63;;;;;;;11.41;75.80;98871.38;5031419;28;20069;-80
2022/12/24 03:59:23;;;;;;;25.52;5.03;;;;;;;11.43;75.82;98882.63;5014133;28;20091;-80
2022/12/24 04:01:49;;;;;;;26.95;5.20;;;;;;;11.44;75.75;98876.41;5031389;28;20056;-81
2022/12/24 04:04:16;;;;;;;19.58;5.22;;;;;;;11.44;75.81;98877.22;5031695;28;20094;-80
2022/12/24 04:06:43;;;;;;;23.23;4.75;;;;;;;11.43;75.68;98872.94;5031296;28;20095;-81
2022/12/24 04:09:10;;;;;;;30.70;5.60;;;;;;;11.44;75.85;98876.41;5028382;28;20064;-80
2022/12/24 04:11:36;;;;;;;38.10;6.50;;;;;;;11.45;75.68;98876.28;5020935;28;20063;-80
2022/12/24 04:14:03;;;;;;;25.75;5.25;;;;;;;11.44;75.54;98879.88;5024339;28;20137;-80
2022/12/24 04:16:29;;;;;;;35.38;5.80;;;;;;;11.42;75.38;98873.03;5015735;28;20120;-79
2022/12/24 04:18:56;;;;;;;26.80;5.47;;;;;;;11.43;75.17;98890.53;5018649;28;20062;-80
2022/12/24 04:21:22;;;;;;;26.02;5.65;;;;;;;11.43;75.35;98879.97;5023007;28;20057;-79
2022/12/24 04:23:49;;;;;;;24.00;4.75;;;;;;;11.42;75.39;98889.69;5022572;28;20053;-80
2022/12/24 04:26:16;;;;;;;26.02;5.20;;;;;;;11.43;75.38;98901.06;5031085;28;20076;-79
2022/12/24 04:28:43;;;;;;;28.88;6.50;;;;;;;11.41;75.24;98898.56;5030933;28;20790;-80
2022/12/24 04:31:12;;;;;;;27.23;4.68;;;;;;;11.40;75.14;98899.50;5013177;28;20699;-80
2022/12/24 04:33:39;;;;;;;22.92;4.22;;;;;;;11.40;75.25;98906.59;5031208;28;20057;-80
2022/12/24 04:36:06;;;;;;;25.95;4.90;;;;;;;11.39;75.21;98904.88;5013259;28;20149;-80
2022/12/24 04:38:33;;;;;;;24.60;5.00;;;;;;;11.38;75.38;98905.84;5030801;28;20064;-80
2022/12/24 04:41:02;;;;;;;31.95;6.72;;;;;;;11.37;75.10;98912.06;5030746;28;20433;-79
2022/12/24 04:43:30;;;;;;;24.08;4.78;;;;;;;11.38;75.13;98929.56;5030867;28;20516;-80
2022/12/24 04:46:08;;;;;;;29.13;5.38;;;;;;;11.36;74.28;98929.66;5030768;28;20053;-80
2022/12/24 04:48:35;;;;;;;22.60;4.32;;;;;;;11.38;75.10;98925.13;5013143;28;20095;-81
2022/12/24 04:51:06;;;;;;;29.20;4.18;;;;;;;11.36;74.17;98937.56;5030614;28;20502;-79
2022/12/24 04:53:33;;;;;;;26.67;5.18;;;;;;;11.39;75.20;98941.78;5030665;28;20068;-80
2022/12/24 04:56:01;;;;;;;24.42;4.50;;;;;;;11.39;75.09;98953.16;5019148;28;20081;-79
2022/12/24 04:58:28;;;;;;;23.88;5.07;;;;;;;11.37;74.80;98955.09;5026546;28;20049;-80
2022/12/24 05:00:55;;;;;;;26.83;5.07;;;;;;;11.38;74.84;98948.00;4993968;28;20071;-80
2022/12/24 05:03:22;;;;;;;27.38;5.30;;;;;;;11.39;74.94;98965.47;5022306;28;20064;-81
2022/12/24 05:05:48;;;;;;;28.05;4.93;;;;;;;11.37;74.86;98952.44;5030450;28;20057;-80
2022/12/24 05:08:15;;;;;;;25.90;4.80;;;;;;;11.38;74.79;98969.06;5030239;28;20518;-79
2022/12/24 05:10:41;;;;;;;17.33;3.83;;;;;;;11.39;74.80;98978.66;5030372;28;20049;-80
2022/12/24 05:13:08;;;;;;;27.08;5.18;;;;;;;11.39;74.85;98978.66;5030535;28;20475;-80
2022/12/24 05:15:34;;;;;;;26.70;4.45;;;;;;;11.40;74.57;98964.56;5030279;28;20057;-80
2022/12/24 05:18:01;;;;;;;30.92;4.90;;;;;;;11.39;74.84;98971.59;5030355;28;20128;-80
2022/12/24 05:20:27;;;;;;;23.83;4.68;;;;;;;11.39;74.76;98971.59;5030436;28;20061;-80
2022/12/24 05:28:24;;;;;;;24.98;4.68;;;;;;;11.41;74.82;98984.66;5030310;28;20068;-80
2022/12/24 05:30:51;;;;;;;25.92;4.68;;;;;;;11.40;74.79;98986.44;5012764;28;20061;-80
2022/12/24 05:33:17;;;;;;;26.95;5.45;;;;;;;11.40;74.74;98980.38;5031609;28;20053;-81
2022/12/24 05:35:44;;;;;;;29.88;5.82;;;;;;;11.39;74.74;98979.50;5034062;28;20144;-79
2022/12/24 05:38:10;;;;;;;23.40;5.75;;;;;;;11.40;74.82;98980.38;5033900;28;20060;-81
2022/12/24 05:40:37;;;;;;;27.75;5.70;;;;;;;11.39;74.73;98989.19;5016846;28;20087;-81
2022/12/24 05:43:04;;;;;;;28.77;5.05;;;;;;;11.39;74.82;98990.06;5034113;28;20056;-80
2022/12/24 05:45:30;;;;;;;27.23;5.03;;;;;;;11.39;74.79;98991.84;5016346;28;20060;-80
2022/12/24 05:47:57;;;;;;;22.75;4.63;;;;;;;11.38;74.89;98998.06;5034202;28;20063;-80
2022/12/24 05:50:23;;;;;;;30.92;5.40;;;;;;;11.37;74.73;99007.78;5033901;28;20061;-81
2022/12/24 05:52:50;;;;;;;25.60;5.28;;;;;;;11.37;74.50;99004.28;5033856;28;20502;-80
2022/12/24 05:55:16;;;;;;;25.52;5.35;;;;;;;11.37;74.74;99009.56;5033738;28;20096;-81
2022/12/24 05:57:43;;;;;;;26.17;5.28;;;;;;;11.35;74.64;99009.66;5033881;28;20458;-80
2022/12/24 06:00:10;;;;;;;20.55;4.07;;;;;;;11.34;74.77;99000.09;5033868;28;20144;-80
2022/12/24 06:02:36;;;;;;;26.63;4.75;;;;;;;11.34;74.94;99002.72;5033869;28;20052;-80
2022/12/24 06:05:03;;;;;;;25.38;4.82;;;;;;;11.32;74.68;99016.00;5033413;28;20053;-80
2022/12/24 06:07:30;;;;;;;23.90;4.93;;;;;;;11.33;74.84;99017.69;5033895;28;20137;-79
2022/12/24 06:09:56;;;;;;;23.13;4.50;;;;;;;11.33;74.88;99022.13;5033718;28;20054;-80
2022/12/24 06:12:23;;;;;;;32.08;5.95;;;;;;;11.32;74.92;99018.63;5015930;28;20053;-80
2022/12/24 06:14:49;;;;;;;25.83;5.03;;;;;;;11.33;75.05;99017.69;5033668;28;20053;-82
2022/12/24 06:17:19;;;;;;;28.67;6.30;;;;;;;11.32;74.34;99013.38;5033247;28;20123;-80
2022/12/24 06:19:46;;;;;;;25.98;4.75;;;;;;;11.34;75.16;99019.34;5033716;28;20058;-81
2022/12/24 06:22:12;;;;;;;27.45;5.13;;;;;;;11.36;74.97;99023.69;5033723;28;20072;-82
2022/12/24 06:24:39;;;;;;;31.35;5.50;;;;;;;11.36;75.10;99026.34;5015851;28;20088;-80
2022/12/24 06:27:05;;;;;;;24.92;5.43;;;;;;;11.37;75.27;99025.38;5015699;28;20136;-81
2022/12/24 06:29:32;;;;;;;32.00;5.97;;;;;;;11.37;75.14;99030.63;5033320;28;20085;-80
2022/12/24 06:31:58;;;;;;;27.63;6.25;;;;;;;11.38;75.44;99032.31;5015772;28;20061;-81
2022/12/24 06:34:25;;;;;;;33.88;5.97;;;;;;;11.38;75.64;99035.81;5033122;28;20148;-80
2022/12/24 06:36:52;;;;;;;27.60;6.43;;;;;;;11.40;75.47;99038.34;5033060;28;20089;-80
2022/12/24 06:39:18;;;;;;;28.65;6.63;;;;;;;11.40;75.33;99025.16;5033326;28;20494;-80
2022/12/24 06:41:45;;;;;;;26.25;6.15;;;;;;;11.41;75.33;99029.47;5033204;28;20061;-81
2022/12/24 06:44:11;;;;;;;19.45;5.90;;;;;;;11.42;75.55;99036.41;5032699;28;20057;-79
2022/12/24 06:46:38;;;;;;;27.02;6.05;;;;;;;11.44;75.54;99045.06;5031883;28;20509;-79
2022/12/24 06:49:05;;;;;;;28.48;6.30;;;;;;;11.44;75.44;99039.78;5032698;28;20640;-78
2022/12/24 06:51:31;;;;;;;27.30;5.95;;;;;;;11.45;75.61;99039.66;5014565;28;20144;-79
2022/12/24 06:53:58;;;;;;;30.08;6.65;;;;;;;11.46;75.53;99046.63;5033066;28;20072;-80
2022/12/24 06:56:24;;;;;;;29.98;7.50;;;;;;;11.48;75.61;99054.44;5032929;28;20084;-80
2022/12/24 06:58:51;;;;;;;32.45;7.50;;;;;;;11.49;75.55;99055.25;5014828;28;20745;-79
2022/12/24 07:01:19;;;;;;;28.40;6.53;;;;;;;11.49;75.42;99066.66;5032609;28;20049;-80
2022/12/24 07:03:46;;;;;;;27.98;7.18;;;;;;;11.50;75.34;99065.69;5031910;28;20102;-79
2022/12/24 07:06:18;;;;;;;34.72;8.02;;;;;;;11.50;75.11;99064.84;5031962;28;20076;-81
2022/12/24 07:08:45;;;;;;;32.58;6.25;;;;;;;11.51;75.50;99075.28;5014229;28;20115;-79
2022/12/24 07:11:11;;;;;;;40.58;7.90;;;;;;;11.50;75.47;99070.13;5031328;28;20461;-79
2022/12/24 07:13:38;;;;;;;30.63;8.02;;;;;;;11.52;75.62;99068.22;5031485;28;20572;-79
2022/12/24 07:16:04;;;;;;;28.08;7.00;;;;;;;11.51;75.51;99070.00;5031350;28;20132;-79
2022/12/24 07:18:32;;;;;;;24.65;6.63;;;;;;;11.51;75.51;99077.91;5031236;28;20100;-77
2022/12/24 07:20:59;;;;;;;26.30;6.70;;;;;;;11.52;75.45;99079.63;5031199;28;20057;-80
2022/12/24 07:23:26;;;;;;;31.13;7.63;;;;;;;11.54;75.40;99084.75;5031656;28;20421;-79
2022/12/24 07:25:52;;;;;;;25.52;6.53;;;;;;;11.53;75.29;99086.56;5032049;28;20141;-80
2022/12/24 07:28:19;;;;;;;33.08;7.55;;;;;;;11.53;75.35;99098.88;5031978;28;20057;-79
2022/12/24 07:30:54;;;;;;;28.50;6.70;;;;;;;11.53;75.45;99098.88;5031999;28;20137;-80
2022/12/24 07:33:20;;;;;;;28.23;6.78;;;;;;;11.54;75.46;99098.78;5032143;28;20100;-79
2022/12/24 07:35:48;;;;;;;23.33;6.65;;;;;;;11.53;75.59;99106.81;5031957;28;20062;-79
2022/12/24 07:38:21;;;;;;;26.77;6.78;;;;;;;11.55;75.74;99100.47;5032153;28;20097;-79
2022/12/24 07:40:47;;;;;;;28.05;7.15;;;;;;;11.56;75.72;99101.31;5032427;28;20111;-79
2022/12/24 07:43:14;;;;;;;28.17;7.85;;;;;;;11.56;75.83;99112.69;5014354;28;20119;-80
2022/12/24 07:48:56;;;;;;;31.75;7.72;;;;;;;11.60;75.72;99127.31;5099117;23;20428;-78
2022/12/24 07:51:22;;;;;;;32.30;6.68;;;;;;;11.60;75.81;99124.69;5011047;28;20106;-78
2022/12/24 07:53:49;;;;;;;27.17;7.68;;;;;;;11.60;75.81;99131.78;5011028;28;20098;-79
2022/12/24 07:56:15;;;;;;;33.40;8.60;;;;;;;11.62;75.75;99126.41;5009860;28;20504;-78
2022/12/24 07:58:42;;;;;;;28.45;6.28;;;;;;;11.62;75.86;99131.66;5010544;28;20064;-78
2022/12/24 08:01:09;;;;;;;28.27;6.90;;;;;;;11.63;75.83;99135.97;5010766;28;20057;-79
2022/12/24 08:03:35;;;;;;;26.90;7.20;;;;;;;11.65;75.80;99127.00;5010541;28;20064;-78
2022/12/24 08:06:02;;;;;;;25.27;7.10;;;;;;;11.65;75.68;99126.16;5010541;28;20176;-78
2022/12/24 08:08:28;;;;;;;26.63;6.95;;;;;;;11.67;75.71;99137.44;5010578;28;20082;-78
2022/12/24 08:11:01;;;;;;;28.05;6.50;;;;;;;11.67;75.31;99143.53;5010637;28;20105;-78
2022/12/24 08:13:28;;;;;;;26.63;7.05;;;;;;;11.70;75.77;99151.25;5010555;28;20057;-79
2022/12/24 08:15:54;;;;;;;23.40;7.18;;;;;;;11.71;75.79;99152.09;5010223;28;20053;-79
2022/12/24 08:18:21;;;;;;;23.98;6.70;;;;;;;11.72;75.87;99145.88;5010652;28;20056;-78
2022/12/24 08:20:47;;;;;;;22.27;7.00;;;;;;;11.73;75.84;99160.72;5010556;28;20093;-78
2022/12/24 08:23:14;;;;;;;35.55;7.85;;;;;;;11.72;75.88;99173.09;5010506;28;20049;-78
2022/12/24 08:25:45;;;;;;;29.02;7.80;;;;;;;11.71;75.31;99166.09;5010134;28;20054;-78
2022/12/24 08:28:14;;;;;;;24.98;6.55;;;;;;;11.72;75.62;99164.31;4992659;28;20054;-79
2022/12/24 08:30:41;;;;;;;19.13;6.30;;;;;;;11.71;75.87;99166.09;5010663;28;20069;-81
2022/12/24 08:33:07;;;;;;;24.85;6.90;;;;;;;11.70;75.62;99161.78;4992852;28;20050;-81
2022/12/24 08:35:34;;;;;;;26.17;7.40;;;;;;;11.69;75.75;99175.06;5010250;28;20061;-80
2022/12/24 08:38:00;;;;;;;24.05;6.60;;;;;;;11.69;75.87;99175.94;4992923;28;20050;-78
2022/12/24 08:40:27;;;;;;;26.00;6.40;;;;;;;11.69;75.86;99181.19;5010504;28;20128;-80
2022/12/24 08:42:53;;;;;;;24.85;7.43;;;;;;;11.68;75.91;99179.53;5010447;28;20100;-79
2022/12/24 08:45:20;;;;;;;28.20;7.80;;;;;;;11.67;75.90;99182.28;5010182;28;20085;-79
2022/12/24 08:47:46;;;;;;;24.33;6.45;;;;;;;11.68;76.07;99186.59;5010270;28;20061;-79
2022/12/24 08:50:13;;;;;;;27.30;7.13;;;;;;;11.67;76.16;99198.91;5010552;28;20092;-79
2022/12/24 08:52:39;;;;;;;27.42;6.78;;;;;;;11.68;76.19;99199.75;5010314;28;20053;-79
2022/12/24 08:55:06;;;;;;;21.30;6.50;;;;;;;11.68;76.31;99197.97;4992734;28;20077;-79
2022/12/24 08:57:36;;;;;;;22.38;6.30;;;;;;;11.67;76.28;99191.00;4992679;28;20586;-79
2022/12/24 09:00:05;;;;;;;25.80;6.80;;;;;;;11.72;76.31;99193.31;5010367;28;20120;-79
2022/12/24 09:02:31;;;;;;;25.48;6.45;;;;;;;11.72;76.44;99202.09;5010095;28;20049;-79
2022/12/24 09:04:58;;;;;;;25.98;6.63;;;;;;;11.75;76.43;99202.81;4992647;28;20081;-79
2022/12/24 09:07:25;;;;;;;27.80;6.60;;;;;;;11.76;76.42;99207.13;5009786;28;20054;-79
2022/12/24 09:09:51;;;;;;;22.67;6.65;;;;;;;11.78;76.44;99213.16;5010073;28;20105;-79
2022/12/24 09:12:17;;;;;;;27.05;6.45;;;;;;;11.79;76.22;99209.56;5009917;28;20136;-79
2022/12/24 09:14:44;;;;;;;20.13;5.18;;;;;;;11.79;76.22;99218.31;5010189;28;20054;-79
2022/12/24 09:17:10;;;;;;;20.50;5.57;;;;;;;11.79;76.11;99222.72;5009926;28;20049;-78
2022/12/24 09:19:36;;;;;;;19.67;4.97;;;;;;;11.78;75.64;99228.97;5010159;28;20062;-79
2022/12/24 09:22:04;;;;;;;14.70;4.38;;;;;;;11.75;75.95;99230.03;5010031;28;20077;-79
2022/12/24 09:24:31;;;;;;;16.17;4.50;;;;;;;11.76;76.00;99242.25;5010430;28;20089;-79
2022/12/24 09:26:58;;;;;;;15.10;4.50;;;;;;;11.76;75.93;99247.53;5009541;28;20096;-79
2022/12/24 09:29:24;;;;;;;22.55;6.22;;;;;;;11.74;76.21;99249.44;5010125;28;20092;-79
2022/12/24 09:31:50;;;;;;;20.63;6.13;;;;;;;11.73;76.26;99250.38;5010006;28;20050;-79
2022/12/24 09:34:17;;;;;;;24.17;5.53;;;;;;;11.74;76.29;99254.72;5010319;28;20112;-79
2022/12/24 09:36:45;;;;;;;19.02;5.70;;;;;;;11.73;76.60;99256.50;5009577;28;20053;-79
2022/12/24 09:39:14;;;;;;;17.48;5.68;;;;;;;11.75;76.57;99261.66;5010135;28;20519;-79
2022/12/24 09:42:02;;;;;;;20.88;6.65;;;;;;;11.73;76.43;99272.31;5009787;28;20574;-79
2022/12/24 09:45:07;;;;;;;17.05;6.03;;;;;;;11.75;76.63;99274.00;4992567;28;20054;-79
2022/12/24 09:47:48;;;;;;;32.83;7.82;;;;;;;11.76;76.51;99276.53;5009432;28;20053;-79
2022/12/24 09:50:31;;;;;;;23.75;7.90;;;;;;;11.78;76.61;99279.88;5010037;28;20116;-79
2022/12/24 09:53:01;;;;;;;34.33;8.40;;;;;;;11.83;77.00;99283.06;5009953;28;20416;-79
2022/12/24 09:55:36;;;;;;;27.60;7.78;;;;;;;11.82;77.00;99283.19;5009625;28;20560;-79
2022/12/24 09:58:05;;;;;;;26.40;7.78;;;;;;;11.85;77.08;99285.59;5009604;28;20089;-79
2022/12/24 10:00:35;;;;;;;24.92;8.02;;;;;;;11.86;76.87;99288.09;4992085;28;20115;-79
2022/12/24 10:03:13;;;;;;;23.15;7.32;;;;;;;11.85;76.55;99285.59;5009604;28;20578;-79
2022/12/24 10:06:07;;;;;;;29.10;7.72;;;;;;;11.84;76.59;99290.03;5009681;28;20505;-79
2022/12/24 10:08:46;;;;;;;25.80;6.90;;;;;;;11.88;76.72;99292.47;4984005;28;20575;-79
2022/12/24 10:11:23;;;;;;;28.08;7.22;;;;;;;11.88;76.79;99301.19;5009724;28;20144;-79
2022/12/24 10:14:08;;;;;;;23.33;7.47;;;;;;;11.85;76.54;99302.25;5009578;28;20109;-79
2022/12/24 10:16:58;;;;;;;24.45;7.03;;;;;;;11.87;76.91;99302.16;5009227;28;20085;-79
2022/12/24 10:19:58;;;;;;;23.80;6.38;;;;;;;11.89;76.75;99296.78;5009505;28;20639;-79
2022/12/24 10:22:36;;;;;;;27.42;6.68;;;;;;;11.93;76.92;99293.78;5012838;28;20053;-79
2022/12/24 10:25:16;;;;;;;26.52;7.45;;;;;;;11.95;76.86;99291.91;5012757;28;20663;-79
2022/12/24 10:27:44;;;;;;;22.50;6.90;;;;;;;12.01;77.30;99305.59;5013131;28;20081;-79
2022/12/24 10:30:19;;;;;;;31.98;7.88;;;;;;;12.00;76.72;99302.13;5012770;28;20112;-79
2022/12/24 10:32:48;;;;;;;30.40;7.15;;;;;;;12.03;77.03;99299.28;4995407;28;20053;-79
2022/12/24 10:35:14;;;;;;;26.73;6.57;;;;;;;12.06;76.89;99300.88;5012639;28;20138;-79
2022/12/24 10:37:46;;;;;;;32.17;8.05;;;;;;;12.07;76.82;99305.22;5012495;28;20485;-79
2022/12/24 10:40:22;;;;;;;29.90;7.63;;;;;;;12.08;76.43;99305.09;5013132;28;20549;-79
2022/12/24 10:42:48;;;;;;;31.42;7.97;;;;;;;12.12;76.94;99317.13;5013144;28;20077;-79
2022/12/24 10:45:21;;;;;;;25.35;7.55;;;;;;;12.14;76.44;99310.91;5012714;28;20054;-79
2022/12/24 10:47:53;;;;;;;31.77;7.22;;;;;;;12.16;76.44;99322.19;4995201;28;20109;-79
2022/12/24 10:50:30;;;;;;;28.45;7.00;;;;;;;12.17;76.06;99319.44;5012515;28;20089;-78
2022/12/24 10:53:06;;;;;;;28.40;7.47;;;;;;;12.18;75.71;99317.66;5012730;28;20104;-79
2022/12/24 10:55:32;;;;;;;27.30;7.45;;;;;;;12.21;76.60;99328.84;5012272;28;20060;-79
2022/12/24 10:58:04;;;;;;;25.13;7.65;;;;;;;12.21;76.01;99325.34;5012259;28;20065;-79
2022/12/24 11:00:32;;;;;;;30.25;7.68;;;;;;;12.24;76.30;99317.22;5012393;28;20105;-79
2022/12/24 11:03:22;;;;;;;27.00;7.57;;;;;;;12.23;75.53;99323.44;5012233;28;20061;-79
2022/12/24 11:06:05;;;;;;;28.08;6.85;;;;;;;12.22;74.47;99327.00;5012003;28;20046;-79
2022/12/24 11:08:32;;;;;;;27.63;7.63;;;;;;;12.28;75.95;99312.56;5012443;28;20050;-79
2022/12/24 11:11:03;;;;;;;26.17;6.97;;;;;;;12.28;76.06;99331.88;5011946;28;20116;-79
2022/12/24 11:13:31;;;;;;;28.05;7.13;;;;;;;12.29;75.86;99324.81;5012363;28;20137;-79
2022/12/24 11:16:20;;;;;;;21.23;6.30;;;;;;;12.28;75.14;99323.97;5011700;28;20062;-79
2022/12/24 11:18:49;;;;;;;27.13;7.18;;;;;;;12.30;75.58;99322.03;4994488;28;20050;-79
2022/12/24 11:21:20;;;;;;;24.30;6.10;;;;;;;12.31;75.96;99313.19;5012135;28;20142;-78
2022/12/24 11:23:53;;;;;;;29.00;7.22;;;;;;;12.32;75.59;99328.06;5011843;28;20046;-78
2022/12/24 11:26:29;;;;;;;24.88;7.05;;;;;;;12.32;74.89;99320.16;5011741;28;20515;-78
2022/12/24 11:29:13;;;;;;;25.08;6.60;;;;;;;12.32;74.62;99322.78;5011972;28;20050;-78
2022/12/24 11:31:42;;;;;;;33.50;7.85;;;;;;;12.36;75.16;99324.25;4994225;28;20141;-79
2022/12/24 11:34:27;;;;;;;33.03;7.10;;;;;;;12.32;73.72;99314.00;5011587;28;20089;-79
2022/12/24 11:37:13;;;;;;;30.08;7.68;;;;;;;12.30;73.48;99321.22;5011561;28;20381;-79
2022/12/24 11:39:46;;;;;;;32.50;7.25;;;;;;;12.33;74.93;99327.09;5011599;28;20137;-79
2022/12/24 11:42:35;;;;;;;25.80;6.50;;;;;;;12.33;74.65;99326.25;5011419;28;20511;-79
2022/12/24 11:45:06;;;;;;;30.50;7.40;;;;;;;12.36;75.11;99332.19;5011496;28;20062;-79
2022/12/24 11:47:39;;;;;;;27.00;6.57;;;;;;;12.39;75.03;99323.19;5011252;28;20053;-79
2022/12/24 11:50:27;;;;;;;31.02;6.85;;;;;;;12.41;74.54;99334.47;5011388;28;20058;-79